Latest Weather Observations for High Range (Wanganderry)

IDN60801

Issued at 3:03 am EST Monday 21 August 2017 (issued every 30 minutes, with the page automatically refreshed every 10 minutes)

About weather observations | Map of weather stations | Latest weather observations for NSW | Other Formats
Station Details ID: 068262 Name: HIGH RANGE AWS (WANGANDERRY) Lat: -34.33 Lon: 150.27 Height: 813.6 m
Data from the previous 72 hours. | See also: Recent months for locations in New South Wales
Date/Time
EST
Temp
°C
App
Temp
°C
Dew
Point
°C
Rel
Hum
%
Delta-T
°C
Wind Press
QNH
hPa
Press
MSL
hPa
Rain since
9am
mm
Dir  Spd
km/h
Gust
km/h
Spd
kts
Gust
kts
21/03:00am 4.3 -0.4 3.4 94 0.4 N 17 20 9 11 1018.8 1019.0 0.0
21/02:30am 4.1 0.6 3.4 95 0.3 N 11 13 6 7 1019.1 1019.3 0.0
21/02:00am 3.5 -0.5 2.8 95 0.3 NNE 13 17 7 9 1018.8 1019.0 0.0
21/01:30am 3.9 -0.1 3.0 94 0.4 NNE 13 17 7 9 1018.9 1019.1 0.0
21/01:00am 4.1 -0.6 2.9 92 0.5 NNE 17 20 9 11 1019.3 1019.6 0.0
21/12:30am 4.1 -1.0 2.9 92 0.5 NNE 19 22 10 12 1019.3 1019.6 0.0
21/12:00am 3.7 0.0 2.4 91 0.5 NNE 11 13 6 7 1020.0 1020.2 0.0
 
Date/Time
EST
Temp
°C
App
Temp
°C
Dew
Point
°C
Rel
Hum
%
Delta-T
°C
Wind Press
QNH
hPa
Press
MSL
hPa
Rain since
9am
mm
Dir  Spd
km/h
Gust
km/h
Spd
kts
Gust
kts
20/11:30pm 3.9 -0.1 2.6 91 0.6 NNE 13 17 7 9 1020.2 1020.4 0.0
20/11:00pm 3.9 -0.1 2.6 91 0.5 NNE 13 15 7 8 1020.1 1020.3 0.0
20/10:30pm 4.0 0.0 2.8 92 0.5 NNE 13 15 7 8 1020.3 1020.5 0.0
20/10:00pm 3.8 0.2 2.8 93 0.4 NNE 11 15 6 8 1020.7 1021.0 0.0
20/09:30pm 3.5 -0.2 2.5 93 0.4 NNE 11 13 6 7 1020.8 1021.1 0.0
20/09:00pm 4.1 0.5 2.8 91 0.6 NE 11 13 6 7 1021.1 1021.3 0.0
20/08:30pm 4.0 0.7 2.4 89 0.7 NNE 9 11 5 6 1021.1 1021.3 0.0
20/08:00pm 4.4 0.7 2.6 88 0.8 NE 11 13 6 7 1021.2 1021.4 0.0
20/07:30pm 4.7 1.4 2.4 85 1.0 NE 9 11 5 6 1020.8 1021.1 0.0
20/07:00pm 5.1 1.8 2.3 82 1.2 NE 9 11 5 6 1020.7 1021.0 0.0
20/06:30pm 5.9 1.8 2.2 77 1.6 ENE 13 17 7 9 1020.4 1020.7 0.0
20/06:00pm 6.6 2.9 2.1 73 1.9 ENE 11 17 6 9 1020.3 1020.5 0.0
20/05:30pm 7.6 2.6 1.5 65 2.6 NE 17 22 9 12 1020.1 1020.3 0.0
20/05:00pm 9.1 6.0 1.3 58 3.4 ENE 7 11 4 6 1020.4 1020.7 0.0
20/04:30pm 9.0 6.0 1.7 60 3.2 E 7 11 4 6 1020.3 1020.5 0.0
20/04:00pm 9.7 6.1 0.9 54 3.8 E 9 11 5 6 1020.3 1020.5 0.0
20/03:30pm 10.4 7.5 1.2 53 4.0 ESE 6 11 3 6 1020.4 1020.7 0.0
20/03:00pm 10.6 7.7 1.4 53 4.0 SSE 6 7 3 4 1020.6 1020.9 0.0
20/02:30pm 9.9 6.6 0.0 50 4.2 SSE 7 15 4 8 1020.8 1021.1 0.0
20/02:00pm 10.1 6.9 0.7 52 4.0 S 7 15 4 8 1021.3 1021.5 0.0
20/01:30pm 9.7 5.7 0.3 52 4.0 SE 11 17 6 9 1021.5 1021.8 0.0
20/01:00pm 8.9 5.2 -0.1 53 3.7 SSE 9 17 5 9 1021.9 1022.2 0.0
20/12:30pm 8.9 4.8 0.1 54 3.7 SSE 11 19 6 10 1022.0 1022.3 0.0
20/12:00pm 8.3 3.5 0.1 56 3.4 SSW 15 30 8 16 1022.4 1022.6 0.0
20/11:30am 8.3 4.1 -0.7 53 3.7 SSE 11 20 6 11 1022.6 1022.9 0.0
20/11:00am 7.4 1.4 -1.3 54 3.5 S 20 26 11 14 1022.8 1023.1 0.0
20/10:30am 6.7 2.1 -1.4 56 3.2 SSE 13 20 7 11 1023.2 1023.5 0.0
20/10:00am 5.6 -0.5 -2.0 58 2.9 SSW 20 33 11 18 1023.3 1023.6 0.0
20/09:30am 4.2 -2.8 -3.3 58 2.7 SSW 24 33 13 18 1023.3 1023.6 0.0
20/09:00am 3.6 -5.1 -3.2 61 2.5 SSW 33 41 18 22 1023.1 1023.4 0.0
20/08:30am 2.5 -6.3 -4.0 62 2.3 SW 33 41 18 22 1023.1 1023.4 0.0
20/08:00am 1.6 -7.6 -4.5 64 2.2 SSW 35 39 19 21 1022.8 1023.1 0.0
20/07:30am 0.4 -9.2 -4.6 69 1.7 SW 37 41 20 22 1022.4 1022.6 0.0
20/07:00am -0.7 -9.9 -4.9 73 1.4 SW 35 41 19 22 1022.0 1022.3 0.0
20/06:30am -0.6 -9.8 -4.8 73 1.4 SW 35 39 19 21 1021.8 1022.1 0.0
20/06:00am -0.7 -9.6 -4.9 73 1.4 SW 33 41 18 22 1021.6 1021.9 0.0
20/05:30am -0.6 -9.8 -4.8 73 1.4 SW 35 43 19 23 1021.4 1021.6 0.0
20/05:00am -0.3 -10.7 -4.7 72 1.5 SW 41 48 22 26 1021.0 1021.2 0.0
20/04:30am -0.3 -11.0 -4.7 72 1.5 SSW 43 50 23 27 1020.7 1021.0 0.0
20/04:00am -0.1 -10.8 -4.7 71 1.5 SSW 43 54 23 29 1020.6 1020.9 0.0
20/03:30am 0.1 -10.6 -4.7 70 1.6 SW 43 52 23 28 1020.4 1020.7 0.0
20/03:00am 0.2 -10.2 -4.6 70 1.6 SSW 41 50 22 27 1020.4 1020.7 0.0
20/02:30am 0.1 -9.5 -4.7 70 1.6 SW 37 46 20 25 1020.6 1020.9 0.0
20/02:00am 0.0 -8.7 -4.8 70 1.6 SW 32 39 17 21 1021.0 1021.2 0.0
20/01:30am 0.1 -8.2 -4.7 70 1.6 SW 30 37 16 20 1021.1 1021.3 0.0
20/01:00am 0.4 -7.9 -4.6 69 1.7 SW 30 35 16 19 1021.1 1021.3 0.0
20/12:30am 0.7 -7.2 -4.5 68 1.8 SW 28 37 15 20 1021.1 1021.3 0.0
20/12:00am 1.5 -7.4 -4.8 63 2.2 SSW 33 44 18 24 1021.1 1021.3 0.0
 
Date/Time
EST
Temp
°C
App
Temp
°C
Dew
Point
°C
Rel
Hum
%
Delta-T
°C
Wind Press
QNH
hPa
Press
MSL
hPa
Rain since
9am
mm
Dir  Spd
km/h
Gust
km/h
Spd
kts
Gust
kts
19/11:30pm 1.2 -7.1 -5.0 63 2.2 SSW 30 37 16 20 1021.1 1021.3 0.0
19/11:00pm 1.4 -6.9 -5.1 62 2.3 SSW 30 37 16 20 1021.1 1021.3 0.0
19/10:30pm 2.0 -6.9 -5.2 59 2.6 SSW 33 39 18 21 1021.3 1021.5 0.0
19/10:00pm 2.5 -6.4 -4.9 58 2.7 SSW 33 44 18 24 1021.1 1021.3 0.0
19/09:30pm 2.7 -6.6 -5.2 56 2.9 SSW 35 43 19 23 1021.2 1021.4 0.0
19/09:00pm 3.0 -5.9 -5.1 55 2.8 SSW 33 41 18 22 1021.2 1021.4 0.0
19/08:30pm 3.8 -5.5 -5.1 52 3.1 SSW 35 43 19 23 1021.0 1021.2 0.0
19/08:00pm 4.3 -4.6 -4.9 51 3.2 SSW 33 43 18 23 1020.7 1021.0 0.0
19/07:30pm 4.2 -3.3 -4.5 53 3.1 SW 26 33 14 18 1020.5 1020.8 0.0
19/07:00pm 5.1 -2.4 -4.2 51 3.4 SSW 26 32 14 17 1020.3 1020.5 0.0
19/06:30pm 5.5 -1.6 -4.1 50 3.5 SW 24 30 13 16 1019.9 1020.1 0.0
19/06:00pm 5.6 -2.5 -3.5 52 3.4 SW 30 41 16 22 1019.5 1019.8 0.0
19/05:30pm 5.8 -1.9 -3.3 52 3.4 SW 28 35 15 19 1019.1 1019.3 0.0
19/05:00pm 6.3 -2.4 -3.1 51 3.5 SW 33 43 18 23 1018.9 1019.1 0.0
19/04:30pm 6.5 -0.7 -2.4 53 3.4 SW 26 32 14 17 1018.4 1018.6 0.0
19/04:00pm 7.9 -0.5 -2.4 48 4.0 WSW 32 43 17 23 1018.1 1018.3 0.0
19/03:30pm 7.5 -0.2 -2.8 48 4.0 SW 28 37 15 20 1017.9 1018.1 0.0
19/03:11pm 7.7 -0.8 -3.2 46 4.2 WSW 32 54 17 29 1017.7 1017.9 0.0
19/03:00pm 7.9 -0.5 -2.7 47 4.1 SW 32 46 17 25 1017.8 1018.0 0.0
19/02:30pm 8.2 -1.1 -2.4 47 4.2 SSW 37 50 20 27 1017.4 1017.6 0.0
19/02:00pm 8.5 -0.9 -2.7 45 4.4 SW 37 50 20 27 1017.1 1017.2 0.0
19/01:30pm 7.5 -1.6 -3.6 45 4.2 SW 35 46 19 25 1016.9 1017.1 0.0
19/01:00pm 7.8 -1.2 -2.5 48 4.0 SW 35 50 19 27 1016.9 1017.1 0.0
19/12:50pm 7.1 -1.7 -4.0 45 4.1 SW 33 52 18 28 1016.9 1017.1 0.0
19/12:30pm 7.6 -1.2 -1.1 54 3.5 SW 35 54 19 29 1017.1 1017.2 0.0
19/12:19pm 7.2 -2.0 -1.2 55 3.4 SW 37 56 20 30 1017.1 1017.2 0.0
19/12:00pm 6.7 -3.9 -1.9 54 3.4 SW 44 59 24 32 1016.8 1017.0 0.0
19/11:30am 6.6 -4.7 -1.5 56 3.2 SW 48 61 26 33 1016.8 1017.0 0.0
19/11:00am 6.1 -6.0 -2.0 56 3.1 SW 52 59 28 32 1016.8 1017.0 0.0
19/10:30am 5.5 -6.4 -2.8 55 3.1 SW 50 63 27 34 1016.8 1017.0 0.0
19/10:00am 5.0 -5.0 -1.7 62 2.6 SW 41 52 22 28 1016.9 1017.1 0.0
19/09:30am 4.1 -6.3 -1.7 66 2.2 SW 43 57 23 31 1016.8 1017.0 0.0
19/09:00am 3.4 -7.2 -1.7 69 1.9 SW 44 59 24 32 1016.5 1016.7 0.0
19/08:30am 2.6 -8.3 -1.4 75 1.5 WSW 46 57 25 31 1015.9 1016.0 0.0
19/08:00am 1.9 -9.0 -1.3 79 1.2 WSW 46 63 25 34 1015.3 1015.5 0.0
19/07:30am 1.3 -9.3 -1.8 80 1.1 WSW 44 57 24 31 1015.2 1015.4 0.0
19/07:00am 1.2 -9.2 -1.9 80 1.1 WSW 43 50 23 27 1014.9 1015.0 0.0
19/06:30am 1.0 -8.3 -2.1 80 1.2 WSW 37 50 20 27 1014.6 1014.7 0.0
19/06:00am 1.1 -7.4 -2.0 80 1.2 WSW 33 44 18 24 1014.4 1014.5 0.0
19/05:30am 1.1 -7.4 -2.0 80 1.2 WSW 33 50 18 27 1013.9 1014.0 0.0
19/05:00am 1.6 -7.7 -2.0 77 1.3 WSW 37 48 20 26 1013.7 1013.8 0.0
19/04:30am 1.7 -7.2 -1.7 78 1.3 WSW 35 54 19 29 1013.4 1013.5 0.0
19/04:28am 1.6 -7.3 -1.8 78 1.3 W 35 54 19 29 1013.4 1013.5 0.0
19/04:00am 1.9 -7.0 -1.7 77 1.3 WSW 35 50 19 27 1013.2 1013.3 0.0
19/03:30am 2.2 -6.6 -1.2 78 1.3 WSW 35 56 19 30 1012.9 1013.0 0.0
19/03:00am 2.4 -6.0 -1.4 76 1.4 WSW 33 54 18 29 1012.5 1012.6 0.0
19/02:37am 2.3 -6.1 -1.3 77 1.4 WSW 33 54 18 29 1012.7 1012.8 0.0
19/02:30am 2.2 -6.6 -1.4 77 1.4 WSW 35 54 19 29 1012.5 1012.6 0.0
19/02:02am 2.4 -7.2 -1.2 77 1.4 W 39 63 21 34 1012.3 1012.4 0.0
19/02:00am 2.3 -6.9 -1.1 78 1.3 W 37 54 20 29 1012.4 1012.5 0.0
19/01:30am 2.5 -8.0 -1.1 77 1.4 W 44 65 24 35 1011.9 1011.9 0.0
19/01:23am 2.6 -7.9 -1.0 77 1.4 W 44 65 24 35 1011.9 1011.9 0.0
19/01:00am 2.7 -5.5 -0.9 77 1.4 W 32 44 17 24 1012.4 1012.5 0.0
19/12:34am 3.1 -6.7 -0.5 77 1.4 W 41 59 22 32 1012.5 1012.6 0.0
19/12:30am 3.1 -6.4 -0.5 77 1.4 W 39 59 21 32 1012.4 1012.5 0.0
19/12:00am 2.9 -4.1 -0.5 78 1.3 WSW 26 39 14 21 1012.3 1012.4 0.0
 
Date/Time
EST
Temp
°C
App
Temp
°C
Dew
Point
°C
Rel
Hum
%
Delta-T
°C
Wind Press
QNH
hPa
Press
MSL
hPa
Rain since
9am
mm
Dir  Spd
km/h
Gust
km/h
Spd
kts
Gust
kts
18/11:30pm 3.3 -5.8 -0.7 75 1.5 WSW 37 63 20 34 1012.3 1012.4 0.0
18/11:00pm 3.3 -8.3 -0.9 74 1.6 WSW 50 89 27 48 1011.4 1011.5 0.0
18/10:53pm 3.5 -6.9 -0.5 75 1.6 WSW 44 67 24 36 1011.8 1011.8 0.0
18/10:30pm 3.5 -7.3 -0.3 76 1.5 WSW 46 63 25 34 1012.1 1012.2 0.0
18/10:00pm 3.8 -6.0 -0.2 75 1.6 WSW 41 57 22 31 1012.4 1012.5 0.0
18/09:30pm 3.7 -6.7 -0.3 75 1.6 W 44 61 24 33 1011.8 1011.8 0.0
18/09:00pm 3.9 -6.8 -0.1 75 1.6 WSW 46 69 25 37 1011.8 1011.8 0.0
18/08:30pm 3.8 -8.8 0.3 78 1.4 W 56 80 30 43 1011.1 1011.2 0.0
18/08:23pm 3.8 -8.0 0.1 77 1.5 W 52 76 28 41 1011.0 1011.1 0.0
18/08:00pm 3.9 -5.0 0.9 81 1.2 WSW 37 59 20 32 1011.6 1011.7 0.0
18/07:30pm 3.8 -5.8 1.0 82 1.1 WSW 41 65 22 35 1011.3 1011.4 0.0
18/07:00pm 4.7 -5.7 -0.3 70 2.0 WSW 44 70 24 38 1011.0 1011.1 0.0
18/06:33pm 4.8 -6.7 -0.2 70 2.0 W 50 69 27 37 1010.6 1010.6 0.0
18/06:30pm 4.9 -7.0 -0.3 69 2.1 WSW 52 69 28 37 1010.5 1010.5 0.0
18/06:00pm 4.8 -6.3 -0.2 70 2.0 W 48 72 26 39 1010.0 1010.1 0.0
18/05:33pm 4.6 -6.1 0.0 72 1.8 W 46 65 25 35 1009.9 1010.0 0.0
18/05:30pm 4.8 -6.3 0.0 71 1.9 W 48 65 26 35 1009.7 1009.7 0.0
18/05:00pm 5.3 -6.5 0.1 69 2.1 W 52 74 28 40 1009.4 1009.4 0.0
18/04:30pm 5.5 -6.4 -0.5 65 2.4 W 52 82 28 44 1009.1 1009.1 0.0
18/04:24pm 5.6 -7.1 -0.7 64 2.5 W 56 82 30 44 1008.8 1008.9 0.0
18/04:07pm 6.3 -3.9 -0.2 63 2.6 WSW 43 63 23 34 1008.8 1008.9 0.0
18/04:00pm 6.4 -4.0 -0.3 62 2.7 WSW 44 59 24 32 1008.7 1008.7 0.0
18/03:30pm 6.7 -4.5 -1.0 58 3.1 W 48 80 26 43 1008.4 1008.4 0.0
18/03:00pm 7.1 -4.8 -0.6 58 3.1 W 52 76 28 41 1008.1 1008.1 0.0
18/02:30pm 6.8 -5.2 -0.9 58 3.1 W 52 82 28 44 1007.9 1007.9 0.0
18/02:21pm 6.7 -5.0 -1.7 55 3.3 WSW 50 82 27 44 1007.4 1007.4 0.0
18/02:11pm 8.4 -2.0 -0.1 55 3.5 W 44 63 24 34 1007.8 1007.8 0.0
18/02:06pm 7.7 -4.2 -0.5 56 3.3 W 52 82 28 44 1007.6 1007.6 0.0
18/02:02pm 7.4 -4.2 -0.8 56 3.3 W 50 82 27 44 1007.3 1007.3 0.0
18/02:01pm 7.5 -4.1 -0.9 55 3.4 W 50 82 27 44 1007.2 1007.2 0.0
18/02:00pm 7.6 -3.2 -0.8 55 3.4 W 46 78 25 42 1007.2 1007.2 0.0
18/01:30pm 7.0 -2.7 0.2 62 2.8 W 41 65 22 35 1007.8 1007.8 0.0
18/01:00pm 6.4 -5.1 0.1 64 2.6 W 50 76 27 41 1007.6 1007.6 0.0
18/12:30pm 6.6 -4.8 0.3 64 2.6 W 50 80 27 43 1007.8 1007.8 0.0
18/12:00pm 6.9 -4.7 -0.5 59 3.0 W 50 72 27 39 1007.5 1007.5 0.0
18/11:30am 6.5 -4.9 0.4 65 2.5 W 50 80 27 43 1008.1 1008.1 0.0
18/11:00am 6.0 -4.7 -0.1 65 2.5 W 46 82 25 44 1008.4 1008.4 0.0
18/10:31am 5.4 -4.3 0.4 70 2.0 WSW 41 69 22 37 1008.7 1008.7 0.0
18/10:30am 5.4 -3.9 0.4 70 2.0 WSW 39 54 21 29 1008.7 1008.7 0.0
18/10:00am 5.1 -5.9 1.0 75 1.7 W 48 70 26 38 1008.7 1008.7 0.0
18/09:35am 5.1 -3.8 0.7 73 1.8 W 37 82 20 44 1008.3 1008.3 0.0
18/09:34am 5.1 -3.0 0.9 74 1.7 W 33 74 18 40 1008.4 1008.4 0.0
18/09:30am 4.9 -3.2 1.0 76 1.6 W 33 48 18 26 1008.6 1008.6 0.0
18/09:00am 4.5 -4.0 0.8 77 1.5 W 35 56 19 30 1008.6 1008.6 0.4
18/08:30am 3.7 -6.5 1.1 83 1.1 WSW 44 67 24 36 1008.4 1008.4 0.4
18/08:00am 4.0 -5.3 0.3 77 1.5 W 39 57 21 31 1008.3 1008.3 0.4
18/07:30am 4.0 -5.5 -0.4 73 1.7 W 39 61 21 33 1007.9 1007.9 0.4
18/07:00am 3.6 -5.7 0.5 80 1.2 W 39 59 21 32 1007.4 1007.4 0.4
18/06:37am 3.8 -6.4 0.8 81 1.2 W 44 67 24 36 1007.2 1007.2 0.4
18/06:30am 3.8 -5.5 0.8 81 1.2 W 39 54 21 29 1007.2 1007.2 0.4
18/06:00am 3.5 -6.7 1.2 85 0.9 W 44 63 24 34 1007.0 1007.0 0.4
18/05:34am 3.9 -4.2 0.9 81 1.2 W 33 54 18 29 1007.1 1007.1 0.4
18/05:30am 3.9 -4.6 0.9 81 1.2 W 35 54 19 29 1007.2 1007.2 0.4
18/05:04am 3.9 -4.6 0.9 81 1.2 W 35 54 19 29 1007.0 1007.0 0.4
18/05:00am 3.8 -5.1 0.8 81 1.2 W 37 52 20 28 1007.0 1007.0 0.4
18/04:30am 3.5 -5.7 1.1 84 1.0 W 39 56 21 30 1006.9 1006.9 0.4
18/04:00am 3.7 -4.7 1.6 86 0.9 W 35 50 19 27 1007.0 1007.0 0.4
18/03:30am 4.1 -6.8 1.6 84 1.0 W 48 70 26 38 1006.8 1006.8 0.4

Other Formats:

Comma delimited format used in spreadsheet applications
http://www.bom.gov.au/fwo/IDN60801/IDN60801.99742.axf

JavaScript Object Notation format (JSON) in row-major order
http://www.bom.gov.au/fwo/IDN60801/IDN60801.99742.json